sensor_id;sensor_type;location;lat;lon;timestamp;pressure;altitude;pressure_sealevel;temperature;humidity
52249;BME280;38541;48.130;8.378;2024-03-25T00:01:59;92043.88;;;2.55;74.01
52249;BME280;38541;48.130;8.378;2024-03-25T00:04:25;92042.22;;;2.49;73.29
52249;BME280;38541;48.130;8.378;2024-03-25T00:06:50;92047.97;;;2.39;73.16
52249;BME280;38541;48.130;8.378;2024-03-25T00:09:16;92041.00;;;2.40;73.45
52249;BME280;38541;48.130;8.378;2024-03-25T00:11:42;92041.13;;;2.33;74.04
52249;BME280;38541;48.130;8.378;2024-03-25T00:14:08;92048.56;;;2.30;73.64
52249;BME280;38541;48.130;8.378;2024-03-25T00:16:34;92047.34;;;2.20;73.87
52249;BME280;38541;48.130;8.378;2024-03-25T00:19:00;92050.94;;;2.07;72.90
52249;BME280;38541;48.130;8.378;2024-03-25T00:21:26;92046.47;;;2.03;73.30
52249;BME280;38541;48.130;8.378;2024-03-25T00:23:51;92045.31;;;1.98;72.93
52249;BME280;38541;48.130;8.378;2024-03-25T00:26:17;92038.72;;;1.91;72.37
52249;BME280;38541;48.130;8.378;2024-03-25T00:28:43;92051.66;;;1.91;72.87
52249;BME280;38541;48.130;8.378;2024-03-25T00:31:09;92043.44;;;1.94;73.06
52249;BME280;38541;48.130;8.378;2024-03-25T00:33:35;92047.38;;;1.73;73.02
52249;BME280;38541;48.130;8.378;2024-03-25T00:36:00;92051.78;;;1.72;73.02
52249;BME280;38541;48.130;8.378;2024-03-25T00:38:26;92045.03;;;1.71;73.09
52249;BME280;38541;48.130;8.378;2024-03-25T00:40:52;92043.31;;;1.77;74.00
52249;BME280;38541;48.130;8.378;2024-03-25T00:43:17;92046.69;;;1.65;73.77
52249;BME280;38541;48.130;8.378;2024-03-25T00:45:43;92042.19;;;1.61;72.90
52249;BME280;38541;48.130;8.378;2024-03-25T00:48:09;92046.00;;;1.58;73.28
52249;BME280;38541;48.130;8.378;2024-03-25T00:50:34;92040.41;;;1.61;73.93
52249;BME280;38541;48.130;8.378;2024-03-25T00:53:00;92037.22;;;1.59;73.93
52249;BME280;38541;48.130;8.378;2024-03-25T00:55:25;92037.47;;;1.58;74.75
52249;BME280;38541;48.130;8.378;2024-03-25T00:57:51;92036.19;;;1.48;74.84
52249;BME280;38541;48.130;8.378;2024-03-25T01:00:17;92035.41;;;1.48;74.20
52249;BME280;38541;48.130;8.378;2024-03-25T01:02:43;92035.41;;;1.36;73.13
52249;BME280;38541;48.130;8.378;2024-03-25T01:05:09;92023.97;;;1.13;72.31
52249;BME280;38541;48.130;8.378;2024-03-25T01:07:35;92023.97;;;1.01;71.65
52249;BME280;38541;48.130;8.378;2024-03-25T01:10:01;92018.31;;;0.92;71.17
52249;BME280;38541;48.130;8.378;2024-03-25T01:12:26;92017.75;;;0.90;71.58
52249;BME280;38541;48.130;8.378;2024-03-25T01:14:52;92022.16;;;0.90;71.86
52249;BME280;38541;48.130;8.378;2024-03-25T01:17:18;92021.69;;;0.93;72.75
52249;BME280;38541;48.130;8.378;2024-03-25T01:19:44;92028.31;;;0.89;72.43
52249;BME280;38541;48.130;8.378;2024-03-25T01:22:09;92018.19;;;0.87;72.98
52249;BME280;38541;48.130;8.378;2024-03-25T01:24:35;92019.13;;;0.93;72.86
52249;BME280;38541;48.130;8.378;2024-03-25T01:27:00;92010.44;;;0.87;72.42
52249;BME280;38541;48.130;8.378;2024-03-25T01:29:26;92020.00;;;0.87;72.90
52249;BME280;38541;48.130;8.378;2024-03-25T01:31:52;92009.97;;;0.78;73.35
52249;BME280;38541;48.130;8.378;2024-03-25T01:34:18;92010.19;;;0.77;73.05
52249;BME280;38541;48.130;8.378;2024-03-25T01:36:43;92011.41;;;0.74;73.21
52249;BME280;38541;48.130;8.378;2024-03-25T01:39:09;92002.16;;;0.66;72.87
52249;BME280;38541;48.130;8.378;2024-03-25T01:41:34;92007.34;;;0.66;74.02
52249;BME280;38541;48.130;8.378;2024-03-25T01:44:00;92006.53;;;0.66;73.72
52249;BME280;38541;48.130;8.378;2024-03-25T01:46:27;92003.34;;;0.52;73.36
52249;BME280;38541;48.130;8.378;2024-03-25T01:48:53;91996.97;;;0.54;73.90
52249;BME280;38541;48.130;8.378;2024-03-25T01:51:19;92003.56;;;0.50;73.29
52249;BME280;38541;48.130;8.378;2024-03-25T01:53:46;91996.66;;;0.44;73.26
52249;BME280;38541;48.130;8.378;2024-03-25T01:56:13;92002.56;;;0.51;74.20
52249;BME280;38541;48.130;8.378;2024-03-25T01:58:39;91993.34;;;0.55;73.99
52249;BME280;38541;48.130;8.378;2024-03-25T02:01:05;91999.41;;;0.49;73.94
52249;BME280;38541;48.130;8.378;2024-03-25T02:03:31;91997.59;;;0.50;74.08
52249;BME280;38541;48.130;8.378;2024-03-25T02:06:02;91986.34;;;0.44;73.25
52249;BME280;38541;48.130;8.378;2024-03-25T02:08:28;91990.44;;;0.33;72.76
52249;BME280;38541;48.130;8.378;2024-03-25T02:10:57;91985.97;;;0.28;72.78
52249;BME280;38541;48.130;8.378;2024-03-25T02:13:24;91979.50;;;0.19;72.76
52249;BME280;38541;48.130;8.378;2024-03-25T02:15:49;91979.50;;;0.19;73.64
52249;BME280;38541;48.130;8.378;2024-03-25T02:18:20;91978.28;;;0.22;73.59
52249;BME280;38541;48.130;8.378;2024-03-25T02:20:46;91978.84;;;0.24;73.35
52249;BME280;38541;48.130;8.378;2024-03-25T02:23:12;91971.94;;;0.18;73.15
52249;BME280;38541;48.130;8.378;2024-03-25T02:25:40;91966.88;;;0.11;72.63
52249;BME280;38541;48.130;8.378;2024-03-25T02:28:07;91970.88;;;0.07;72.33
52249;BME280;38541;48.130;8.378;2024-03-25T02:30:32;91974.22;;;-0.05;72.41
52249;BME280;38541;48.130;8.378;2024-03-25T02:32:58;91967.59;;;-0.01;72.70
52249;BME280;38541;48.130;8.378;2024-03-25T02:35:25;91971.84;;;-0.06;73.36
52249;BME280;38541;48.130;8.378;2024-03-25T02:37:52;91974.56;;;-0.01;73.26
52249;BME280;38541;48.130;8.378;2024-03-25T02:40:19;91971.84;;;-0.06;73.33
52249;BME280;38541;48.130;8.378;2024-03-25T02:42:45;91972.84;;;-0.07;73.17
52249;BME280;38541;48.130;8.378;2024-03-25T02:45:11;91970.63;;;-0.04;73.57
52249;BME280;38541;48.130;8.378;2024-03-25T02:47:37;91972.97;;;-0.02;73.84
52249;BME280;38541;48.130;8.378;2024-03-25T02:50:02;91970.63;;;-0.04;73.38
52249;BME280;38541;48.130;8.378;2024-03-25T02:52:28;91969.63;;;-0.03;73.18
52249;BME280;38541;48.130;8.378;2024-03-25T02:54:54;91974.97;;;-0.04;73.22
52249;BME280;38541;48.130;8.378;2024-03-25T02:57:20;91977.06;;;-0.13;72.45
52249;BME280;38541;48.130;8.378;2024-03-25T02:59:46;91976.34;;;-0.20;71.99
52249;BME280;38541;48.130;8.378;2024-03-25T03:02:11;91975.34;;;-0.19;73.02
52249;BME280;38541;48.130;8.378;2024-03-25T03:04:37;91977.94;;;-0.19;73.01
52249;BME280;38541;48.130;8.378;2024-03-25T03:07:02;91976.28;;;-0.13;73.87
52249;BME280;38541;48.130;8.378;2024-03-25T03:09:28;91977.13;;;-0.20;73.07
52249;BME280;38541;48.130;8.378;2024-03-25T03:11:54;91976.78;;;-0.23;73.13
52249;BME280;38541;48.130;8.378;2024-03-25T03:14:19;91971.97;;;-0.20;73.60
52249;BME280;38541;48.130;8.378;2024-03-25T03:16:45;91975.56;;;-0.21;74.05
52249;BME280;38541;48.130;8.378;2024-03-25T03:19:10;91979.50;;;-0.18;74.05
52249;BME280;38541;48.130;8.378;2024-03-25T03:21:36;91974.28;;;-0.30;73.36
52249;BME280;38541;48.130;8.378;2024-03-25T03:24:02;91977.63;;;-0.30;73.33
52249;BME280;38541;48.130;8.378;2024-03-25T03:26:28;91980.00;;;-0.28;73.07
52249;BME280;38541;48.130;8.378;2024-03-25T03:28:54;91976.84;;;-0.30;73.19
52249;BME280;38541;48.130;8.378;2024-03-25T03:31:19;91976.06;;;-0.31;73.47
52249;BME280;38541;48.130;8.378;2024-03-25T03:33:47;91980.06;;;-0.35;72.84
52249;BME280;38541;48.130;8.378;2024-03-25T03:36:15;91974.34;;;-0.37;73.45
52249;BME280;38541;48.130;8.378;2024-03-25T03:38:41;91974.34;;;-0.37;73.29
52249;BME280;38541;48.130;8.378;2024-03-25T03:41:06;91966.59;;;-0.37;73.48
52249;BME280;38541;48.130;8.378;2024-03-25T03:43:32;91969.19;;;-0.37;73.32
52249;BME280;38541;48.130;8.378;2024-03-25T03:45:57;91966.59;;;-0.37;73.47
52249;BME280;38541;48.130;8.378;2024-03-25T03:48:23;91965.03;;;-0.38;73.58
52249;BME280;38541;48.130;8.378;2024-03-25T03:50:48;91953.56;;;-0.42;73.42
52249;BME280;38541;48.130;8.378;2024-03-25T03:53:14;91952.81;;;-0.49;73.33
52249;BME280;38541;48.130;8.378;2024-03-25T03:55:40;91951.81;;;-0.48;73.95
52249;BME280;38541;48.130;8.378;2024-03-25T03:58:05;91956.00;;;-0.47;73.73
52249;BME280;38541;48.130;8.378;2024-03-25T04:00:34;91948.47;;;-0.49;73.72
52249;BME280;38541;48.130;8.378;2024-03-25T04:03:01;91957.19;;;-0.50;73.28
52249;BME280;38541;48.130;8.378;2024-03-25T04:05:30;91957.63;;;-0.53;72.83
52249;BME280;38541;48.130;8.378;2024-03-25T04:07:56;91954.63;;;-0.50;73.02
52249;BME280;38541;48.130;8.378;2024-03-25T04:10:23;91964.44;;;-0.59;72.86
52249;BME280;38541;48.130;8.378;2024-03-25T04:12:48;91967.25;;;-0.67;72.86
52249;BME280;38541;48.130;8.378;2024-03-25T04:15:14;91968.88;;;-0.66;73.05
52249;BME280;38541;48.130;8.378;2024-03-25T04:17:46;91974.03;;;-0.66;73.97
52249;BME280;38541;48.130;8.378;2024-03-25T04:20:12;91974.22;;;-0.67;73.66
52249;BME280;38541;48.130;8.378;2024-03-25T04:22:42;91975.84;;;-0.73;73.44
52249;BME280;38541;48.130;8.378;2024-03-25T04:25:09;91972.06;;;-0.70;74.22
52249;BME280;38541;48.130;8.378;2024-03-25T04:27:43;91969.28;;;-0.69;74.36
52249;BME280;38541;48.130;8.378;2024-03-25T04:30:10;91968.28;;;-0.68;74.49
52249;BME280;38541;48.130;8.378;2024-03-25T04:32:37;91966.50;;;-0.67;74.44
52249;BME280;38541;48.130;8.378;2024-03-25T04:35:03;91962.34;;;-0.68;74.95
52249;BME280;38541;48.130;8.378;2024-03-25T04:37:29;91960.97;;;-0.71;75.29
52249;BME280;38541;48.130;8.378;2024-03-25T04:39:55;91958.22;;;-0.76;75.77
52249;BME280;38541;48.130;8.378;2024-03-25T04:42:22;91959.09;;;-0.82;75.98
52249;BME280;38541;48.130;8.378;2024-03-25T04:44:47;91953.72;;;-0.81;75.74
52249;BME280;38541;48.130;8.378;2024-03-25T04:47:13;91945.19;;;-0.81;76.28
52249;BME280;38541;48.130;8.378;2024-03-25T04:49:41;91943.97;;;-0.79;76.00
52249;BME280;38541;48.130;8.378;2024-03-25T04:52:06;91947.72;;;-0.75;75.63
52249;BME280;38541;48.130;8.378;2024-03-25T04:54:32;91938.66;;;-0.84;74.86
52249;BME280;38541;48.130;8.378;2024-03-25T04:56:58;91945.63;;;-0.84;75.18
52249;BME280;38541;48.130;8.378;2024-03-25T04:59:23;91936.09;;;-0.84;74.61
52249;BME280;38541;48.130;8.378;2024-03-25T05:01:49;91937.72;;;-0.90;74.81
52249;BME280;38541;48.130;8.378;2024-03-25T05:04:14;91946.44;;;-0.91;74.70
52249;BME280;38541;48.130;8.378;2024-03-25T05:06:40;91937.94;;;-0.91;74.76
52249;BME280;38541;48.130;8.378;2024-03-25T05:09:05;91941.91;;;-0.95;75.38
52249;BME280;38541;48.130;8.378;2024-03-25T05:11:34;91942.88;;;-0.90;75.86
52249;BME280;38541;48.130;8.378;2024-03-25T05:13:59;91939.28;;;-0.89;75.83
52249;BME280;38541;48.130;8.378;2024-03-25T05:16:25;91932.94;;;-0.86;75.95
52249;BME280;38541;48.130;8.378;2024-03-25T05:18:50;91943.25;;;-0.86;75.99
52249;BME280;38541;48.130;8.378;2024-03-25T05:21:16;91938.84;;;-0.86;75.85
52249;BME280;38541;48.130;8.378;2024-03-25T05:23:41;91940.03;;;-0.81;76.06
52249;BME280;38541;48.130;8.378;2024-03-25T05:26:07;91945.19;;;-0.81;75.32
52249;BME280;38541;48.130;8.378;2024-03-25T05:28:33;91945.53;;;-0.78;74.55
52249;BME280;38541;48.130;8.378;2024-03-25T05:31:08;91945.91;;;-0.74;75.10
52249;BME280;38541;48.130;8.378;2024-03-25T05:33:34;91946.53;;;-0.79;74.15
52249;BME280;38541;48.130;8.378;2024-03-25T05:36:00;91944.19;;;-0.80;73.59
52249;BME280;38541;48.130;8.378;2024-03-25T05:38:28;91946.59;;;-0.86;73.29
52249;BME280;38541;48.130;8.378;2024-03-25T05:40:54;91949.97;;;-0.85;72.96
52249;BME280;38541;48.130;8.378;2024-03-25T05:43:20;91952.50;;;-0.78;73.57
52249;BME280;38541;48.130;8.378;2024-03-25T05:45:56;91951.34;;;-0.82;72.82
52249;BME280;38541;48.130;8.378;2024-03-25T05:48:24;91960.66;;;-0.81;72.61
52249;BME280;38541;48.130;8.378;2024-03-25T05:53:23;91947.78;;;-0.81;72.66
52249;BME280;38541;48.130;8.378;2024-03-25T05:55:48;91955.94;;;-0.84;72.27
52249;BME280;38541;48.130;8.378;2024-03-25T05:58:14;91946.03;;;-0.88;72.49
52249;BME280;38541;48.130;8.378;2024-03-25T06:00:40;91958.72;;;-0.86;72.12
52249;BME280;38541;48.130;8.378;2024-03-25T06:03:05;91959.72;;;-0.87;72.58
52249;BME280;38541;48.130;8.378;2024-03-25T06:05:31;91961.44;;;-0.81;72.48
52249;BME280;38541;48.130;8.378;2024-03-25T06:07:56;91962.25;;;-0.80;72.48
52249;BME280;38541;48.130;8.378;2024-03-25T06:10:22;91952.06;;;-0.75;72.54
52249;BME280;38541;48.130;8.378;2024-03-25T06:12:48;91958.59;;;-0.73;72.87
52249;BME280;38541;48.130;8.378;2024-03-25T06:15:13;91955.22;;;-0.73;72.33
52249;BME280;38541;48.130;8.378;2024-03-25T06:17:39;91958.22;;;-0.76;72.55
52249;BME280;38541;48.130;8.378;2024-03-25T06:20:05;91960.19;;;-0.72;72.54
52249;BME280;38541;48.130;8.378;2024-03-25T06:22:30;91963.91;;;-0.67;72.37
52249;BME280;38541;48.130;8.378;2024-03-25T06:24:56;91961.91;;;-0.65;73.23
52249;BME280;38541;48.130;8.378;2024-03-25T06:27:21;91964.06;;;-0.62;72.84
52249;BME280;38541;48.130;8.378;2024-03-25T06:29:47;91966.44;;;-0.61;73.51
52249;BME280;38541;48.130;8.378;2024-03-25T06:32:13;91966.44;;;-0.61;73.52
52249;BME280;38541;48.130;8.378;2024-03-25T06:34:57;91967.00;;;-0.59;73.79
52249;BME280;38541;48.130;8.378;2024-03-25T06:37:26;91963.63;;;-0.59;74.16
52249;BME280;38541;48.130;8.378;2024-03-25T06:39:51;91958.63;;;-0.54;74.53
52249;BME280;38541;48.130;8.378;2024-03-25T06:42:18;91954.75;;;-0.45;74.63
52249;BME280;38541;48.130;8.378;2024-03-25T06:44:44;91954.91;;;-0.39;74.33
52249;BME280;38541;48.130;8.378;2024-03-25T06:47:15;91948.22;;;-0.29;74.81
52249;BME280;38541;48.130;8.378;2024-03-25T06:49:41;91948.91;;;-0.15;74.52
52249;BME280;38541;48.130;8.378;2024-03-25T06:52:07;91945.66;;;-0.10;73.86
52249;BME280;38541;48.130;8.378;2024-03-25T06:54:32;91947.38;;;-0.04;73.96
52249;BME280;38541;48.130;8.378;2024-03-25T06:56:58;91942.78;;;-0.02;73.92
52249;BME280;38541;48.130;8.378;2024-03-25T06:59:23;91939.34;;;0.05;73.80
52249;BME280;38541;48.130;8.378;2024-03-25T07:01:49;91930.31;;;-0.05;73.51
52249;BME280;38541;48.130;8.378;2024-03-25T07:04:14;91921.78;;;-0.05;73.87
52249;BME280;38541;48.130;8.378;2024-03-25T07:06:40;91937.63;;;-0.02;73.06
52249;BME280;38541;48.130;8.378;2024-03-25T07:09:06;91917.41;;;-0.05;73.63
52249;BME280;38541;48.130;8.378;2024-03-25T07:11:31;91924.63;;;0.05;73.89
52249;BME280;38541;48.130;8.378;2024-03-25T07:13:57;91928.94;;;0.11;74.36
52249;BME280;38541;48.130;8.378;2024-03-25T07:16:23;91921.66;;;0.20;74.33
52249;BME280;38541;48.130;8.378;2024-03-25T07:18:48;91915.41;;;0.28;74.28
52249;BME280;38541;48.130;8.378;2024-03-25T07:21:14;91925.66;;;0.35;74.23
52249;BME280;38541;48.130;8.378;2024-03-25T07:23:39;91926.34;;;0.42;75.06
52249;BME280;38541;48.130;8.378;2024-03-25T07:26:05;91926.63;;;0.52;74.42
52249;BME280;38541;48.130;8.378;2024-03-25T07:28:31;91920.09;;;0.62;74.86
52249;BME280;38541;48.130;8.378;2024-03-25T07:30:57;91920.91;;;0.62;74.34
52249;BME280;38541;48.130;8.378;2024-03-25T07:33:22;91916.06;;;0.66;75.16
52249;BME280;38541;48.130;8.378;2024-03-25T07:35:48;91911.72;;;0.78;74.84
52249;BME280;38541;48.130;8.378;2024-03-25T07:38:13;91907.91;;;0.81;75.21
52249;BME280;38541;48.130;8.378;2024-03-25T07:40:39;91906.22;;;0.87;74.80
52249;BME280;38541;48.130;8.378;2024-03-25T07:43:04;91902.84;;;0.98;74.64
52249;BME280;38541;48.130;8.378;2024-03-25T07:45:31;91895.34;;;1.08;74.75
52249;BME280;38541;48.130;8.378;2024-03-25T07:47:56;91894.78;;;1.18;74.52
52249;BME280;38541;48.130;8.378;2024-03-25T07:50:22;91893.19;;;1.29;74.77
52249;BME280;38541;48.130;8.378;2024-03-25T07:52:48;91888.78;;;1.41;74.85
52249;BME280;38541;48.130;8.378;2024-03-25T07:55:13;91885.19;;;1.54;75.29
52249;BME280;38541;48.130;8.378;2024-03-25T07:57:40;91885.63;;;1.63;75.30
52249;BME280;38541;48.130;8.378;2024-03-25T08:00:06;91878.50;;;1.70;75.30
52249;BME280;38541;48.130;8.378;2024-03-25T08:02:40;91886.69;;;1.79;75.35
52249;BME280;38541;48.130;8.378;2024-03-25T08:05:05;91886.13;;;1.89;75.48
52249;BME280;38541;48.130;8.378;2024-03-25T08:07:31;91883.94;;;1.98;75.16
52249;BME280;38541;48.130;8.378;2024-03-25T08:09:57;91885.38;;;2.06;76.13
52249;BME280;38541;48.130;8.378;2024-03-25T08:12:23;91882.41;;;2.14;75.78
52249;BME280;38541;48.130;8.378;2024-03-25T08:14:48;91877.44;;;2.24;75.46
52249;BME280;38541;48.130;8.378;2024-03-25T08:17:13;91868.81;;;2.36;76.34
52249;BME280;38541;48.130;8.378;2024-03-25T08:19:39;91863.94;;;2.39;76.07
52249;BME280;38541;48.130;8.378;2024-03-25T08:22:04;91864.13;;;2.50;76.10
52249;BME280;38541;48.130;8.378;2024-03-25T08:24:30;91860.38;;;2.58;75.82
52249;BME280;38541;48.130;8.378;2024-03-25T08:26:56;91867.75;;;2.66;75.60
52249;BME280;38541;48.130;8.378;2024-03-25T08:29:21;91861.16;;;2.75;75.73
52249;BME280;38541;48.130;8.378;2024-03-25T08:31:47;91864.84;;;2.79;75.31
52249;BME280;38541;48.130;8.378;2024-03-25T08:34:12;91867.13;;;2.93;76.15
52249;BME280;38541;48.130;8.378;2024-03-25T08:36:38;91859.50;;;3.03;74.74
52249;BME280;38541;48.130;8.378;2024-03-25T08:39:03;91850.53;;;3.11;73.93
52249;BME280;38541;48.130;8.378;2024-03-25T08:41:29;91845.72;;;3.20;73.95
52249;BME280;38541;48.130;8.378;2024-03-25T08:43:55;91849.47;;;3.29;73.35
52249;BME280;38541;48.130;8.378;2024-03-25T08:46:21;91838.63;;;3.32;72.92
52249;BME280;38541;48.130;8.378;2024-03-25T08:48:46;91833.22;;;3.39;71.22
52249;BME280;38541;48.130;8.378;2024-03-25T08:51:12;91828.91;;;3.45;69.44
52249;BME280;38541;48.130;8.378;2024-03-25T08:53:37;91836.53;;;3.51;68.72
52249;BME280;38541;48.130;8.378;2024-03-25T08:56:03;91827.53;;;3.59;67.10
52249;BME280;38541;48.130;8.378;2024-03-25T08:58:29;91821.34;;;3.65;65.44
52249;BME280;38541;48.130;8.378;2024-03-25T09:00:54;91823.47;;;3.68;65.28
52249;BME280;38541;48.130;8.378;2024-03-25T09:03:20;91822.50;;;3.75;65.13
52249;BME280;38541;48.130;8.378;2024-03-25T09:05:46;91823.38;;;3.80;63.95
52249;BME280;38541;48.130;8.378;2024-03-25T09:08:12;91815.63;;;3.85;64.04
52249;BME280;38541;48.130;8.378;2024-03-25T09:10:38;91819.59;;;3.93;62.96
52249;BME280;38541;48.130;8.378;2024-03-25T09:13:22;91806.13;;;3.96;60.55
52249;BME280;38541;48.130;8.378;2024-03-25T09:15:51;91811.66;;;4.05;61.46
52249;BME280;38541;48.130;8.378;2024-03-25T09:18:19;91815.63;;;4.13;61.33
52249;BME280;38541;48.130;8.378;2024-03-25T09:20:45;91810.25;;;4.20;61.45
52249;BME280;38541;48.130;8.378;2024-03-25T09:23:10;91821.22;;;4.27;61.75
52249;BME280;38541;48.130;8.378;2024-03-25T09:25:36;91822.59;;;4.35;62.84
52249;BME280;38541;48.130;8.378;2024-03-25T09:28:02;91814.34;;;4.43;63.43
52249;BME280;38541;48.130;8.378;2024-03-25T09:30:28;91811.84;;;4.53;63.16
52249;BME280;38541;48.130;8.378;2024-03-25T09:32:54;91813.50;;;4.65;63.89
52249;BME280;38541;48.130;8.378;2024-03-25T09:35:19;91815.09;;;4.71;62.77
52249;BME280;38541;48.130;8.378;2024-03-25T09:37:45;91806.81;;;4.79;63.62
52249;BME280;38541;48.130;8.378;2024-03-25T09:40:12;91791.25;;;4.84;62.85
52249;BME280;38541;48.130;8.378;2024-03-25T09:42:47;91784.50;;;4.89;62.16
52249;BME280;38541;48.130;8.378;2024-03-25T09:45:16;91795.47;;;4.96;61.42
52249;BME280;38541;48.130;8.378;2024-03-25T09:47:45;91782.28;;;5.08;61.09
52249;BME280;38541;48.130;8.378;2024-03-25T09:50:12;91783.66;;;5.21;62.10
52249;BME280;38541;48.130;8.378;2024-03-25T09:52:40;91777.97;;;5.29;61.51
52249;BME280;38541;48.130;8.378;2024-03-25T09:55:06;91767.31;;;5.31;59.44
52249;BME280;38541;48.130;8.378;2024-03-25T09:57:33;91768.09;;;5.36;59.49
52249;BME280;38541;48.130;8.378;2024-03-25T09:59:58;91771.22;;;5.38;58.53
52249;BME280;38541;48.130;8.378;2024-03-25T10:02:26;91769.91;;;5.31;56.00
52249;BME280;38541;48.130;8.378;2024-03-25T10:04:52;91764.97;;;5.34;55.55
52249;BME280;38541;48.130;8.378;2024-03-25T10:07:22;91770.00;;;5.51;57.55
52249;BME280;38541;48.130;8.378;2024-03-25T10:09:51;91765.38;;;5.74;59.33
52249;BME280;38541;48.130;8.378;2024-03-25T10:12:17;91766.19;;;5.90;55.83
52249;BME280;38541;48.130;8.378;2024-03-25T10:14:42;91757.91;;;5.98;55.41
52249;BME280;38541;48.130;8.378;2024-03-25T10:17:09;91761.56;;;6.08;56.48
52249;BME280;38541;48.130;8.378;2024-03-25T10:19:34;91757.16;;;6.08;52.31
52249;BME280;38541;48.130;8.378;2024-03-25T10:22:05;91756.63;;;6.22;51.84
52249;BME280;38541;48.130;8.378;2024-03-25T10:24:41;91741.25;;;6.46;53.93
52249;BME280;38541;48.130;8.378;2024-03-25T10:27:23;91749.84;;;6.78;51.95
52249;BME280;38541;48.130;8.378;2024-03-25T10:29:54;91750.06;;;7.07;52.09
52249;BME280;38541;48.130;8.378;2024-03-25T10:32:23;91741.13;;;7.29;50.50
52249;BME280;38541;48.130;8.378;2024-03-25T10:34:56;91741.09;;;7.50;53.41
52249;BME280;38541;48.130;8.378;2024-03-25T10:37:25;91736.84;;;7.59;53.17
52249;BME280;38541;48.130;8.378;2024-03-25T10:39:54;91732.09;;;7.71;52.21
52249;BME280;38541;48.130;8.378;2024-03-25T10:42:21;91736.50;;;7.81;51.35
52249;BME280;38541;48.130;8.378;2024-03-25T10:44:48;91723.09;;;7.93;49.24
52249;BME280;38541;48.130;8.378;2024-03-25T10:47:18;91716.72;;;8.10;51.99
52249;BME280;38541;48.130;8.378;2024-03-25T10:49:49;91710.69;;;8.09;50.91
52249;BME280;38541;48.130;8.378;2024-03-25T10:52:16;91708.22;;;8.28;50.26
52249;BME280;38541;48.130;8.378;2024-03-25T10:54:43;91698.16;;;8.41;48.96
52249;BME280;38541;48.130;8.378;2024-03-25T10:57:10;91690.34;;;8.36;47.65
52249;BME280;38541;48.130;8.378;2024-03-25T10:59:36;91694.69;;;8.56;51.62
52249;BME280;38541;48.130;8.378;2024-03-25T11:02:10;91691.59;;;8.78;52.10
52249;BME280;38541;48.130;8.378;2024-03-25T11:04:36;91682.41;;;8.81;49.83
52249;BME280;38541;48.130;8.378;2024-03-25T11:07:13;91677.50;;;8.74;48.30
52249;BME280;38541;48.130;8.378;2024-03-25T11:09:39;91673.81;;;8.75;48.18
52249;BME280;38541;48.130;8.378;2024-03-25T11:12:05;91672.50;;;9.02;50.77
52249;BME280;38541;48.130;8.378;2024-03-25T11:14:31;91662.88;;;9.22;49.45
52249;BME280;38541;48.130;8.378;2024-03-25T11:17:01;91669.25;;;9.35;49.81
52249;BME280;38541;48.130;8.378;2024-03-25T11:19:28;91661.63;;;9.57;49.77
52249;BME280;38541;48.130;8.378;2024-03-25T11:22:06;91649.47;;;9.67;50.34
52249;BME280;38541;48.130;8.378;2024-03-25T11:24:32;91641.16;;;9.79;49.78
52249;BME280;38541;48.130;8.378;2024-03-25T11:26:58;91643.06;;;9.92;49.52
52249;BME280;38541;48.130;8.378;2024-03-25T11:29:26;91634.47;;;10.06;49.56
52249;BME280;38541;48.130;8.378;2024-03-25T11:31:52;91621.69;;;10.18;47.40
52249;BME280;38541;48.130;8.378;2024-03-25T11:34:18;91614.72;;;10.27;48.75
52249;BME280;38541;48.130;8.378;2024-03-25T11:36:44;91609.16;;;10.48;47.13
52249;BME280;38541;48.130;8.378;2024-03-25T11:39:10;91604.78;;;10.58;49.66
52249;BME280;38541;48.130;8.378;2024-03-25T11:41:39;91602.06;;;10.63;47.67
52249;BME280;38541;48.130;8.378;2024-03-25T11:44:05;91594.69;;;10.65;42.82
52249;BME280;38541;48.130;8.378;2024-03-25T11:46:36;91591.19;;;10.69;41.91
52249;BME280;38541;48.130;8.378;2024-03-25T11:49:02;91589.03;;;10.72;45.87
52249;BME280;38541;48.130;8.378;2024-03-25T11:51:28;91589.94;;;10.95;46.21
52249;BME280;38541;48.130;8.378;2024-03-25T11:53:53;91589.34;;;11.12;46.67
52249;BME280;38541;48.130;8.378;2024-03-25T11:56:19;91587.38;;;11.18;46.30
52249;BME280;38541;48.130;8.378;2024-03-25T11:58:45;91572.38;;;11.32;44.97
52249;BME280;38541;48.130;8.378;2024-03-25T12:01:11;91578.06;;;11.48;45.82
52249;BME280;38541;48.130;8.378;2024-03-25T12:03:37;91570.59;;;11.41;45.77
52249;BME280;38541;48.130;8.378;2024-03-25T12:06:02;91570.94;;;11.63;46.26
52249;BME280;38541;48.130;8.378;2024-03-25T12:08:28;91572.47;;;11.64;45.24
52249;BME280;38541;48.130;8.378;2024-03-25T12:10:56;91568.34;;;11.49;43.83
52249;BME280;38541;48.130;8.378;2024-03-25T12:13:57;91559.28;;;11.78;43.84
52249;BME280;38541;48.130;8.378;2024-03-25T12:16:24;91550.31;;;11.79;44.13
52249;BME280;38541;48.130;8.378;2024-03-25T12:18:49;91539.25;;;11.91;44.11
52249;BME280;38541;48.130;8.378;2024-03-25T12:21:15;91534.16;;;11.72;44.86
52249;BME280;38541;48.130;8.378;2024-03-25T12:23:42;91521.28;;;12.07;40.79
52249;BME280;38541;48.130;8.378;2024-03-25T12:26:08;91509.22;;;11.92;39.24
52249;BME280;38541;48.130;8.378;2024-03-25T12:28:33;91516.69;;;12.21;42.14
52249;BME280;38541;48.130;8.378;2024-03-25T12:31:07;91505.03;;;12.45;42.26
52249;BME280;38541;48.130;8.378;2024-03-25T12:33:43;91504.13;;;12.59;41.70
52249;BME280;38541;48.130;8.378;2024-03-25T12:36:11;91504.75;;;12.55;39.70
52249;BME280;38541;48.130;8.378;2024-03-25T12:38:37;91495.66;;;12.70;43.34
52249;BME280;38541;48.130;8.378;2024-03-25T12:41:11;91497.59;;;13.05;42.89
52249;BME280;38541;48.130;8.378;2024-03-25T12:43:43;91493.25;;;13.01;41.09
52249;BME280;38541;48.130;8.378;2024-03-25T12:46:10;91487.69;;;13.20;40.09
52249;BME280;38541;48.130;8.378;2024-03-25T12:48:36;91479.81;;;13.37;43.18
52249;BME280;38541;48.130;8.378;2024-03-25T12:51:02;91472.50;;;13.61;40.00
52249;BME280;38541;48.130;8.378;2024-03-25T12:53:28;91475.59;;;13.63;40.29
52249;BME280;38541;48.130;8.378;2024-03-25T12:55:54;91470.78;;;13.74;40.05
52249;BME280;38541;48.130;8.378;2024-03-25T12:58:19;91465.66;;;13.86;39.28
52249;BME280;38541;48.130;8.378;2024-03-25T13:00:45;91462.69;;;13.96;38.45
52249;BME280;38541;48.130;8.378;2024-03-25T13:03:11;91455.03;;;14.12;38.54
52249;BME280;38541;48.130;8.378;2024-03-25T13:05:37;91453.91;;;14.22;38.01